Maldives Meteorological Service

SYNOP

Station Code SYNOP
43555
AAXX 18124 43555 11457 50206 10304 20245 30088 40090 60002 70242 82201 333 10313 59016 82818 84078=
43533
AAXX 18124 43533 12460 23605 10293 20243 30088 40090 60002 82201 333 10312 59012 82818=
43577
AAXX 18124 43577 12462 73203 10296 20254 30088 40090 60002 82232 333 10309 59012 82818 84363 86077=
43588
AAXX 18124 43588 12465 72303 10285 20245 30088 40089 69982 82238 333 10297 59013 82818 87276=
43599
AAXX 18124 43599 12460 70000 10285 20248 30087 40089 60062 8225/ 333 10300 59012 82818 86362=
Last Updated : 2019-02-18 17:00:03